Time;durP1;ratioP1;P1;durP2;ratioP2;P2;SDS_P1;SDS_P2;PMS_P1;PMS_P2;Temp;Humidity;BMP_temperature;BMP_pressure;BME280_temperature;BME280_humidity;BME280_pressure;Samples;Min_cycle;Max_cycle;Signal;HPM_P1;HPM_P2
2022/04/02 00:01:47;;;;;;;43.80;20.52;;;;;;;;;;6268621;28;20464;-61
2022/04/02 00:04:47;;;;;;;48.08;22.05;;;;;;;;;;6266765;28;20041;-60
2022/04/02 00:07:48;;;;;;;47.00;22.63;;;;;;;;;;6268474;28;20041;-61
2022/04/02 00:10:49;;;;;;;51.72;21.45;;;;;;;;;;6268251;28;20619;-60
2022/04/02 00:13:49;;;;;;;45.10;21.90;;;;;;;;;;6264125;28;20045;-59
2022/04/02 00:16:50;;;;;;;46.60;20.45;;;;;;;;;;6264082;28;20041;-62
2022/04/02 00:19:50;;;;;;;53.45;22.67;;;;;;;;;;6264672;28;20691;-62
2022/04/02 00:26:14;;;;;;;41.05;18.98;;;;;;;;;;6262893;28;20550;-62
2022/04/02 00:29:15;;;;;;;39.78;19.45;;;;;;;;;;6262907;28;20053;-61
2022/04/02 00:32:15;;;;;;;40.70;18.88;;;;;;;;;;6257017;28;20183;-62
2022/04/02 00:35:16;;;;;;;40.83;18.48;;;;;;;;;;6264309;28;20488;-63
2022/04/02 00:38:17;;;;;;;38.35;17.83;;;;;;;;;;6263975;28;20078;-62
2022/04/02 00:41:17;;;;;;;40.70;18.77;;;;;;;;;;6265851;28;20420;-63
2022/04/02 00:44:18;;;;;;;42.28;19.48;;;;;;;;;;6266843;28;20052;-62
2022/04/02 00:47:23;;;;;;;42.70;18.63;;;;;;;;;;6262827;28;20119;-61
2022/04/02 00:50:23;;;;;;;40.25;18.00;;;;;;;;;;6265925;28;20109;-63
2022/04/02 00:53:28;;;;;;;40.72;18.15;;;;;;;;;;6264118;28;20814;-62
2022/04/02 00:56:29;;;;;;;36.50;17.23;;;;;;;;;;6260967;28;20087;-63
2022/04/02 00:59:30;;;;;;;38.55;18.75;;;;;;;;;;6264988;28;20243;-63
2022/04/02 01:02:30;;;;;;;45.92;19.63;;;;;;;;;;6264947;28;20098;-63
2022/04/02 01:05:31;;;;;;;40.90;18.13;;;;;;;;;;6265830;28;20041;-63
2022/04/02 01:08:32;;;;;;;36.15;17.23;;;;;;;;;;6265678;28;20576;-62
2022/04/02 01:11:41;;;;;;;34.35;17.15;;;;;;;;;;6263859;28;20092;-62
2022/04/02 01:14:42;;;;;;;34.90;16.83;;;;;;;;;;6263773;28;20083;-62
2022/04/02 01:17:43;;;;;;;36.83;18.35;;;;;;;;;;6260373;28;20049;-62
2022/04/02 01:20:43;;;;;;;29.80;15.85;;;;;;;;;;6263106;28;20129;-62
2022/04/02 01:23:44;;;;;;;38.13;18.17;;;;;;;;;;6263624;28;20049;-62
2022/04/02 01:26:44;;;;;;;40.83;18.60;;;;;;;;;;6261811;28;20124;-61
2022/04/02 01:29:45;;;;;;;45.70;18.77;;;;;;;;;;6265367;28;20045;-62
2022/04/02 01:32:45;;;;;;;33.13;16.30;;;;;;;;;;6264710;28;20051;-63
2022/04/02 01:35:57;;;;;;;38.88;18.05;;;;;;;;;;6263342;28;20049;-60
2022/04/02 01:38:58;;;;;;;39.55;20.00;;;;;;;;;;6262598;28;20033;-61
2022/04/02 01:42:05;;;;;;;34.70;17.75;;;;;;;;;;6264659;28;20055;-62
2022/04/02 01:45:06;;;;;;;35.00;16.67;;;;;;;;;;6263034;28;20106;-63
2022/04/02 01:48:07;;;;;;;32.87;16.50;;;;;;;;;;6262304;28;20079;-62
2022/04/02 01:51:08;;;;;;;35.65;16.60;;;;;;;;;;6264989;28;20389;-62
2022/04/02 01:54:08;;;;;;;33.15;15.07;;;;;;;;;;6265941;28;20075;-62
2022/04/02 01:57:09;;;;;;;39.88;16.42;;;;;;;;;;6264046;28;20156;-62
2022/04/02 02:00:10;;;;;;;35.53;17.30;;;;;;;;;;6265353;28;20550;-62
2022/04/02 02:03:12;;;;;;;45.92;20.73;;;;;;;;;;6266015;28;20045;-62
2022/04/02 02:06:13;;;;;;;40.03;17.13;;;;;;;;;;6265283;28;20044;-63
2022/04/02 02:09:13;;;;;;;36.45;17.48;;;;;;;;;;6262301;28;20068;-62
2022/04/02 02:12:15;;;;;;;36.08;17.42;;;;;;;;;;6263389;28;20484;-62
2022/04/02 02:15:18;;;;;;;33.17;16.52;;;;;;;;;;6265704;28;20080;-62
2022/04/02 02:18:19;;;;;;;38.55;17.10;;;;;;;;;;6261863;28;20080;-62
2022/04/02 02:21:19;;;;;;;34.45;16.67;;;;;;;;;;6263053;28;20507;-62
2022/04/02 02:24:20;;;;;;;34.95;16.65;;;;;;;;;;6264812;28;20060;-61
2022/04/02 02:27:20;;;;;;;36.05;16.40;;;;;;;;;;6261940;28;20041;-62
2022/04/02 02:30:22;;;;;;;32.72;15.15;;;;;;;;;;6263497;28;20045;-61
2022/04/02 02:36:42;;;;;;;33.85;16.10;;;;;;;;;;6263169;28;20518;-63
2022/04/02 02:39:42;;;;;;;31.45;14.98;;;;;;;;;;6261810;28;20065;-63
2022/04/02 02:42:43;;;;;;;35.38;16.23;;;;;;;;;;6263630;28;20044;-62
2022/04/02 02:45:44;;;;;;;37.13;17.65;;;;;;;;;;6264223;28;20477;-63
2022/04/02 02:48:45;;;;;;;32.35;15.77;;;;;;;;;;6266179;28;20081;-63
2022/04/02 02:51:46;;;;;;;29.70;14.80;;;;;;;;;;6266445;28;20724;-62
2022/04/02 02:54:47;;;;;;;28.33;15.07;;;;;;;;;;6266339;28;20037;-61
2022/04/02 02:57:48;;;;;;;33.83;15.25;;;;;;;;;;6266902;28;20139;-62
2022/04/02 03:00:49;;;;;;;35.22;15.85;;;;;;;;;;6267129;28;20484;-62
2022/04/02 03:03:49;;;;;;;35.60;15.65;;;;;;;;;;6265839;28;20132;-62
2022/04/02 03:06:50;;;;;;;33.03;15.35;;;;;;;;;;6266449;28;20075;-62
2022/04/02 03:09:50;;;;;;;30.50;15.63;;;;;;;;;;6265159;28;20157;-62
2022/04/02 03:12:52;;;;;;;35.20;16.98;;;;;;;;;;6268326;28;20045;-63
2022/04/02 03:15:53;;;;;;;43.92;17.52;;;;;;;;;;6268253;28;20083;-62
2022/04/02 03:18:55;;;;;;;34.05;16.02;;;;;;;;;;6266483;28;20045;-60
2022/04/02 03:21:56;;;;;;;39.83;16.98;;;;;;;;;;6266190;28;20045;-61
2022/04/02 03:24:56;;;;;;;33.95;15.85;;;;;;;;;;6267403;28;20063;-60
2022/04/02 03:27:57;;;;;;;35.17;17.20;;;;;;;;;;6265079;28;20438;-63
2022/04/02 03:30:58;;;;;;;35.30;16.80;;;;;;;;;;6262272;28;20167;-63
2022/04/02 03:33:58;;;;;;;33.95;16.38;;;;;;;;;;6267519;28;20412;-62
2022/04/02 03:36:59;;;;;;;43.55;18.58;;;;;;;;;;6266279;28;20494;-63
2022/04/02 03:40:00;;;;;;;42.47;18.92;;;;;;;;;;6265183;28;20132;-63
2022/04/02 03:43:01;;;;;;;32.45;16.33;;;;;;;;;;6264058;28;20049;-63
2022/04/02 03:49:22;;;;;;;40.17;19.10;;;;;;;;;;6264057;28;20048;-62
2022/04/02 03:52:24;;;;;;;36.65;18.08;;;;;;;;;;6267484;28;20072;-63
2022/04/02 03:55:24;;;;;;;36.40;18.33;;;;;;;;;;6267855;28;20052;-61
2022/04/02 03:58:25;;;;;;;45.80;18.85;;;;;;;;;;6264466;28;20486;-62
2022/04/02 04:01:26;;;;;;;37.33;17.83;;;;;;;;;;6265211;28;20037;-63
2022/04/02 04:04:27;;;;;;;34.28;16.00;;;;;;;;;;6264693;28;20475;-63
2022/04/02 04:07:28;;;;;;;34.73;17.13;;;;;;;;;;6266489;28;20175;-62
2022/04/02 04:10:28;;;;;;;42.33;21.10;;;;;;;;;;6266154;28;20041;-62
2022/04/02 04:13:29;;;;;;;39.03;17.40;;;;;;;;;;6267286;28;20055;-62
2022/04/02 04:16:30;;;;;;;35.20;16.88;;;;;;;;;;6268273;28;20048;-61
2022/04/02 04:19:31;;;;;;;39.25;18.60;;;;;;;;;;6265224;28;20072;-62
2022/04/02 04:22:32;;;;;;;36.53;15.80;;;;;;;;;;6261088;28;20079;-62
2022/04/02 04:25:32;;;;;;;38.95;17.30;;;;;;;;;;6267479;28;20057;-62
2022/04/02 04:28:33;;;;;;;36.38;16.17;;;;;;;;;;6263799;28;20049;-62
2022/04/02 04:31:34;;;;;;;40.97;18.50;;;;;;;;;;6265604;28;20056;-61
2022/04/02 04:34:35;;;;;;;38.30;17.13;;;;;;;;;;6265780;28;20045;-62
2022/04/02 04:37:36;;;;;;;40.92;17.85;;;;;;;;;;6264774;28;20136;-62
2022/04/02 04:40:37;;;;;;;35.08;16.92;;;;;;;;;;6266018;28;20652;-62
2022/04/02 04:43:41;;;;;;;41.90;17.33;;;;;;;;;;6262256;28;20049;-59
2022/04/02 04:46:41;;;;;;;44.42;19.83;;;;;;;;;;6266314;28;20095;-62
2022/04/02 04:49:42;;;;;;;39.38;17.48;;;;;;;;;;6265172;28;20073;-62
2022/04/02 04:52:43;;;;;;;39.92;18.30;;;;;;;;;;6266279;28;20488;-60
2022/04/02 04:55:43;;;;;;;36.92;16.60;;;;;;;;;;6266099;28;20048;-62
2022/04/02 04:58:44;;;;;;;35.55;16.27;;;;;;;;;;6261458;28;20132;-62
2022/04/02 05:01:47;;;;;;;42.50;18.35;;;;;;;;;;6261845;28;20055;-62
2022/04/02 05:04:47;;;;;;;41.25;16.52;;;;;;;;;;6257546;28;20477;-62
2022/04/02 05:07:49;;;;;;;51.28;19.38;;;;;;;;;;6264830;28;20087;-62
2022/04/02 05:10:50;;;;;;;47.20;18.88;;;;;;;;;;6263265;28;20041;-62
2022/04/02 05:13:51;;;;;;;58.10;20.48;;;;;;;;;;6265916;28;20405;-63
2022/04/02 05:16:52;;;;;;;64.35;21.92;;;;;;;;;;6265307;28;20083;-63
2022/04/02 05:19:53;;;;;;;45.45;18.33;;;;;;;;;;6264977;28;20839;-62
2022/04/02 05:22:53;;;;;;;47.08;19.08;;;;;;;;;;6265327;28;20055;-61
2022/04/02 05:25:55;;;;;;;39.25;18.02;;;;;;;;;;6265949;28;20106;-63
2022/04/02 05:28:56;;;;;;;46.47;19.30;;;;;;;;;;6263380;28;20098;-62
2022/04/02 05:31:56;;;;;;;47.53;18.15;;;;;;;;;;6255163;28;20105;-63
2022/04/02 05:34:58;;;;;;;37.20;15.95;;;;;;;;;;6262918;28;20047;-63
2022/04/02 05:37:58;;;;;;;38.30;16.77;;;;;;;;;;6261165;28;20511;-62
2022/04/02 05:40:59;;;;;;;41.05;18.42;;;;;;;;;;6263244;28;20041;-61
2022/04/02 05:44:00;;;;;;;37.70;17.58;;;;;;;;;;6265157;28;20068;-61
2022/04/02 05:47:00;;;;;;;36.88;16.42;;;;;;;;;;6265746;28;20140;-62
2022/04/02 05:50:04;;;;;;;37.08;17.02;;;;;;;;;;6265803;28;20087;-62
2022/04/02 05:53:05;;;;;;;39.08;16.77;;;;;;;;;;6266846;28;20526;-61
2022/04/02 05:56:06;;;;;;;50.38;19.55;;;;;;;;;;6249741;28;20041;-61
2022/04/02 05:59:07;;;;;;;93.20;27.00;;;;;;;;;;6261034;28;20076;-62
2022/04/02 06:02:10;;;;;;;48.83;19.60;;;;;;;;;;6267789;28;20103;-64
2022/04/02 06:05:13;;;;;;;43.95;17.60;;;;;;;;;;6264761;28;20140;-64
2022/04/02 06:08:16;;;;;;;42.05;16.95;;;;;;;;;;6263389;28;20106;-63
2022/04/02 06:11:16;;;;;;;;;;;;;;;;;;6265348;28;20055;-61
2022/04/02 06:14:17;;;;;;;47.85;17.15;;;;;;;;;;6266612;28;19928;-62
2022/04/02 06:17:17;;;;;;;80.53;23.55;;;;;;;;;;6266961;28;20550;-62
2022/04/02 06:20:18;;;;;;;50.55;17.33;;;;;;;;;;6265522;28;20295;-62
2022/04/02 06:23:19;;;;;;;66.90;22.00;;;;;;;;;;6271532;28;20136;-62
2022/04/02 06:26:19;;;;;;;112.78;29.70;;;;;;;;;;6272444;28;20052;-62
2022/04/02 06:29:20;;;;;;;101.75;27.40;;;;;;;;;;6270728;28;20053;-62
2022/04/02 06:32:22;;;;;;;60.40;22.92;;;;;;;;;;6271863;28;20064;-60
2022/04/02 06:35:24;;;;;;;54.92;20.25;;;;;;;;;;6269931;28;20393;-62
2022/04/02 06:38:25;;;;;;;61.28;21.15;;;;;;;;;;6268589;28;20090;-61
2022/04/02 06:41:26;;;;;;;79.10;26.20;;;;;;;;;;6270555;28;20110;-61
2022/04/02 06:44:34;;;;;;;58.90;22.23;;;;;;;;;;6271834;28;20084;-56
2022/04/02 06:47:35;;;;;;;84.20;26.38;;;;;;;;;;6271653;28;20049;-65
2022/04/02 06:50:36;;;;;;;56.00;19.80;;;;;;;;;;6266727;28;20465;-61
2022/04/02 06:53:36;;;;;;;43.92;18.30;;;;;;;;;;6269127;28;20151;-60
2022/04/02 06:56:37;;;;;;;57.90;21.08;;;;;;;;;;6267467;28;20179;-60
2022/04/02 06:59:38;;;;;;;56.72;20.25;;;;;;;;;;6267780;28;20469;-59
2022/04/02 07:02:38;;;;;;;53.47;20.45;;;;;;;;;;6267790;28;20063;-60
2022/04/02 07:05:39;;;;;;;48.53;19.70;;;;;;;;;;6269475;28;20118;-61
2022/04/02 07:08:40;;;;;;;55.03;20.50;;;;;;;;;;6268520;28;20053;-62
2022/04/02 07:11:41;;;;;;;58.40;21.85;;;;;;;;;;6268284;28;20041;-63
2022/04/02 07:14:42;;;;;;;40.15;18.33;;;;;;;;;;6269587;28;20041;-61
2022/04/02 07:17:43;;;;;;;61.58;25.08;;;;;;;;;;6269973;28;20068;-63
2022/04/02 07:20:44;;;;;;;57.95;23.83;;;;;;;;;;6267202;28;20095;-59
2022/04/02 07:23:45;;;;;;;41.72;18.13;;;;;;;;;;6266949;28;20545;-60
2022/04/02 07:26:48;;;;;;;51.13;20.10;;;;;;;;;;6267404;28;20049;-60
2022/04/02 07:29:52;;;;;;;69.72;25.45;;;;;;;;;;6267380;28;20051;-62
2022/04/02 07:32:53;;;;;;;48.22;20.25;;;;;;;;;;6267982;28;20147;-62
2022/04/02 07:36:08;;;;;;;56.55;22.20;;;;;;;;;;6268063;28;20045;-62
2022/04/02 07:39:21;;;;;;;48.80;20.33;;;;;;;;;;6266678;28;20044;-62
2022/04/02 07:42:26;;;;;;;51.22;21.17;;;;;;;;;;6266305;28;20045;-61
2022/04/02 07:45:32;;;;;;;54.65;23.13;;;;;;;;;;6265992;28;20265;-57
2022/04/02 07:48:37;;;;;;;42.75;18.60;;;;;;;;;;6266093;28;20409;-60
2022/04/02 07:51:38;;;;;;;43.58;19.23;;;;;;;;;;6267848;28;20037;-64
2022/04/02 07:54:42;;;;;;;44.53;18.80;;;;;;;;;;6266826;28;20056;-63
2022/04/02 07:57:45;;;;;;;54.55;21.08;;;;;;;;;;6267729;28;20061;-67
2022/04/02 08:00:52;;;;;;;50.20;21.33;;;;;;;;;;6265621;28;20080;-62
2022/04/02 08:03:54;;;;;;;48.65;19.85;;;;;;;;;;6265814;28;20049;-64
2022/04/02 08:06:56;;;;;;;42.88;18.90;;;;;;;;;;6266913;28;20136;-65
2022/04/02 08:10:12;;;;;;;54.30;21.50;;;;;;;;;;6266536;28;20076;-62
2022/04/02 08:13:15;;;;;;;47.60;19.65;;;;;;;;;;6266558;28;20048;-66
2022/04/02 08:16:16;;;;;;;;;;;;;;;;;;6268059;28;20048;-62
2022/04/02 08:19:22;;;;;;;66.20;24.85;;;;;;;;;;6267063;28;19930;-63
2022/04/02 08:22:23;;;;;;;47.92;20.52;;;;;;;;;;6266982;28;20053;-61
2022/04/02 08:25:24;;;;;;;53.95;23.23;;;;;;;;;;6267167;28;20096;-64
2022/04/02 08:29:05;;;;;;;45.13;21.13;;;;;;;;;;6268767;28;20048;-63
2022/04/02 08:32:19;;;;;;;45.95;17.80;;;;;;;;;;6269110;28;20527;-59
2022/04/02 08:35:43;;;;;;;41.28;19.52;;;;;;;;;;6268515;28;20049;-61
2022/04/02 08:38:54;;;;;;;46.95;19.63;;;;;;;;;;6265030;28;20047;-61
2022/04/02 08:42:19;;;;;;;49.53;20.35;;;;;;;;;;6267532;28;20052;-60
2022/04/02 08:45:30;;;;;;;45.17;20.17;;;;;;;;;;6266354;28;20049;-66
2022/04/02 08:48:35;;;;;;;50.60;22.23;;;;;;;;;;6263319;28;20048;-66
2022/04/02 08:51:41;;;;;;;56.78;23.38;;;;;;;;;;6266706;28;20048;-63
2022/04/02 08:55:09;;;;;;;45.53;20.70;;;;;;;;;;6264958;28;20762;-65
2022/04/02 08:58:21;;;;;;;44.83;20.40;;;;;;;;;;6265822;28;20090;-61
2022/04/02 09:01:37;;;;;;;41.38;18.70;;;;;;;;;;6263662;28;20084;-59
2022/04/02 09:05:09;;;;;;;44.92;19.00;;;;;;;;;;6264036;28;20063;-63
2022/04/02 09:08:31;;;;;;;47.92;18.50;;;;;;;;;;6266304;28;20056;-63
2022/04/02 09:11:49;;;;;;;46.70;18.55;;;;;;;;;;6260223;28;20052;-64
2022/04/02 09:15:07;;;;;;;44.42;20.45;;;;;;;;;;6266245;28;20484;-68
2022/04/02 09:18:28;;;;;;;45.85;18.50;;;;;;;;;;6262159;28;20178;-60
2022/04/02 09:21:44;;;;;;;40.83;17.55;;;;;;;;;;6262900;28;20041;-66
2022/04/02 09:24:47;;;;;;;49.35;20.13;;;;;;;;;;6266747;28;20048;-68
2022/04/02 09:28:06;;;;;;;53.60;22.33;;;;;;;;;;6265215;28;20075;-67
2022/04/02 09:31:45;;;;;;;44.85;18.48;;;;;;;;;;6262461;28;20106;-69
2022/04/02 09:35:07;;;;;;;47.13;19.90;;;;;;;;;;6264007;28;20080;-65
2022/04/02 09:38:23;;;;;;;47.40;20.43;;;;;;;;;;6265027;28;20144;-62
2022/04/02 09:41:57;;;;;;;41.67;17.35;;;;;;;;;;6263957;28;20053;-61
2022/04/02 09:45:09;;;;;;;46.60;20.35;;;;;;;;;;6264009;28;20056;-64
2022/04/02 09:48:17;;;;;;;48.15;20.83;;;;;;;;;;6262016;28;20076;-63
2022/04/02 09:51:20;;;;;;;40.72;19.73;;;;;;;;;;6264539;28;20191;-64
2022/04/02 09:54:30;;;;;;;43.15;19.42;;;;;;;;;;6261804;28;20059;-61
2022/04/02 09:58:08;;;;;;;44.42;18.67;;;;;;;;;;6262705;28;20048;-64
2022/04/02 10:01:39;;;;;;;47.35;21.45;;;;;;;;;;6262063;28;20550;-60
2022/04/02 10:04:54;;;;;;;44.20;20.27;;;;;;;;;;6262870;28;20488;-63
2022/04/02 10:08:04;;;;;;;44.55;20.42;;;;;;;;;;6264987;28;20511;-67
2022/04/02 10:11:08;;;;;;;41.88;17.95;;;;;;;;;;6267190;28;20133;-62
2022/04/02 10:14:09;;;;;;;37.95;18.38;;;;;;;;;;6263923;28;20060;-61
2022/04/02 10:17:13;;;;;;;40.83;18.25;;;;;;;;;;6267376;28;20091;-66
2022/04/02 10:20:14;;;;;;;41.80;18.08;;;;;;;;;;6264624;28;20049;-64
2022/04/02 10:23:23;;;;;;;47.47;21.35;;;;;;;;;;6264522;28;20048;-63
2022/04/02 10:26:26;;;;;;;46.03;20.20;;;;;;;;;;6263334;28;20049;-65
2022/04/02 10:29:43;;;;;;;39.75;18.95;;;;;;;;;;6266671;28;20049;-61
2022/04/02 10:36:22;;;;;;;37.63;15.65;;;;;;;;;;6260366;28;20053;-68
2022/04/02 10:39:24;;;;;;;37.10;16.08;;;;;;;;;;6264996;28;20056;-61
2022/04/02 10:42:37;;;;;;;35.60;16.45;;;;;;;;;;6265484;28;20124;-63
2022/04/02 10:45:41;;;;;;;38.42;17.50;;;;;;;;;;6265656;28;20048;-63
2022/04/02 10:48:53;;;;;;;41.40;18.83;;;;;;;;;;6261832;28;20049;-63
2022/04/02 10:51:55;;;;;;;40.97;19.15;;;;;;;;;;6263891;28;20059;-64
2022/04/02 10:54:56;;;;;;;47.05;20.83;;;;;;;;;;6264549;28;20045;-62
2022/04/02 10:57:59;;;;;;;37.92;17.98;;;;;;;;;;6265011;28;20412;-64
2022/04/02 11:01:01;;;;;;;41.28;18.98;;;;;;;;;;6263305;28;20048;-67
2022/04/02 11:04:07;;;;;;;41.42;19.98;;;;;;;;;;6263096;28;20095;-68
2022/04/02 11:07:07;;;;;;;51.63;21.25;;;;;;;;;;6261438;28;20667;-67
2022/04/02 11:10:11;;;;;;;45.00;19.63;;;;;;;;;;6260721;28;20064;-68
2022/04/02 11:13:26;;;;;;;40.15;18.35;;;;;;;;;;6267234;28;20076;-68
2022/04/02 11:16:39;;;;;;;45.30;20.38;;;;;;;;;;6259644;28;20468;-65
2022/04/02 11:19:56;;;;;;;46.10;20.40;;;;;;;;;;6266620;28;20045;-66
2022/04/02 11:23:02;;;;;;;48.17;20.73;;;;;;;;;;6263761;28;20052;-67
2022/04/02 11:26:04;;;;;;;48.70;20.67;;;;;;;;;;6260359;28;20109;-65
2022/04/02 11:29:07;;;;;;;;;;;;;;;;;;6264408;28;20045;-69
2022/04/02 11:32:10;;;;;;;44.53;19.75;;;;;;;;;;6264206;28;19966;-70
2022/04/02 11:35:17;;;;;;;43.45;20.88;;;;;;;;;;6265999;28;20990;-70
2022/04/02 11:38:20;;;;;;;40.60;19.02;;;;;;;;;;6265347;28;20049;-69
2022/04/02 11:41:37;;;;;;;41.58;19.02;;;;;;;;;;6265308;28;20162;-68
2022/04/02 11:44:38;;;;;;;43.10;19.95;;;;;;;;;;6264302;28;20053;-68
2022/04/02 11:47:49;;;;;;;39.00;20.05;;;;;;;;;;6267296;28;20064;-65
2022/04/02 11:50:50;;;;;;;42.70;19.45;;;;;;;;;;6268624;28;20284;-66
2022/04/02 11:53:52;;;;;;;42.30;19.83;;;;;;;;;;6266280;28;20538;-68
2022/04/02 11:57:06;;;;;;;42.07;19.60;;;;;;;;;;6265185;28;20049;-65
2022/04/02 12:00:13;;;;;;;38.63;18.15;;;;;;;;;;6267870;28;20084;-67
2022/04/02 12:03:24;;;;;;;35.88;18.25;;;;;;;;;;6258728;28;20139;-70
2022/04/02 12:06:33;;;;;;;40.75;19.27;;;;;;;;;;6264682;28;20041;-69
2022/04/02 12:09:34;;;;;;;38.13;18.98;;;;;;;;;;6266671;28;20544;-69
2022/04/02 12:12:44;;;;;;;41.53;19.98;;;;;;;;;;6264175;28;20059;-66
2022/04/02 12:16:13;;;;;;;42.97;21.73;;;;;;;;;;6264839;28;20492;-69
2022/04/02 12:19:14;;;;;;;41.30;20.10;;;;;;;;;;6258184;28;20168;-69
2022/04/02 12:22:17;;;;;;;41.70;20.27;;;;;;;;;;6267710;28;20048;-67
2022/04/02 12:25:20;;;;;;;49.85;22.88;;;;;;;;;;6265438;28;20044;-67
2022/04/02 12:28:21;;;;;;;48.92;24.67;;;;;;;;;;6264890;28;20063;-68
2022/04/02 12:31:23;;;;;;;52.33;23.33;;;;;;;;;;6266610;28;20069;-69
2022/04/02 12:34:25;;;;;;;41.08;20.20;;;;;;;;;;6266164;28;20057;-66
2022/04/02 12:37:40;;;;;;;;;;;;;;;;;;6264999;28;20044;-70
2022/04/02 12:40:41;;;;;;;44.20;20.80;;;;;;;;;;6264163;28;19921;-65
2022/04/02 12:43:47;;;;;;;39.90;19.27;;;;;;;;;;6266194;28;20477;-64
2022/04/02 12:46:48;;;;;;;40.22;19.48;;;;;;;;;;6266332;28;20329;-64
2022/04/02 12:49:48;;;;;;;50.95;20.80;;;;;;;;;;6257812;28;20049;-62
2022/04/02 12:52:50;;;;;;;46.92;21.17;;;;;;;;;;6266210;28;20151;-69
2022/04/02 12:55:52;;;;;;;45.08;21.05;;;;;;;;;;6265177;28;20041;-64
2022/04/02 12:58:56;;;;;;;41.05;20.50;;;;;;;;;;6264445;28;20036;-69
2022/04/02 13:01:57;;;;;;;52.17;21.67;;;;;;;;;;6258099;28;20033;-65
2022/04/02 13:04:58;;;;;;;43.22;21.38;;;;;;;;;;6266626;28;20150;-70
2022/04/02 13:08:04;;;;;;;42.88;20.45;;;;;;;;;;6265309;28;20045;-70
2022/04/02 13:11:05;;;;;;;42.28;19.67;;;;;;;;;;6264068;28;20055;-62
2022/04/02 13:14:27;;;;;;;42.50;20.15;;;;;;;;;;6265847;28;20049;-64
2022/04/02 13:17:38;;;;;;;43.28;20.52;;;;;;;;;;6266416;28;20071;-65
2022/04/02 13:20:40;;;;;;;46.47;21.80;;;;;;;;;;6255769;28;20146;-67
2022/04/02 13:24:12;;;;;;;52.90;23.83;;;;;;;;;;6262786;28;20049;-66
2022/04/02 13:27:31;;;;;;;46.85;22.17;;;;;;;;;;6266157;28;20053;-69
2022/04/02 13:30:33;;;;;;;44.88;20.92;;;;;;;;;;6267231;28;20408;-65
2022/04/02 13:33:37;;;;;;;;;;;;;;;;;;6266581;28;20117;-72
2022/04/02 13:36:49;;;;;;;41.50;19.83;;;;;;;;;;6265984;28;19944;-70
2022/04/02 13:39:56;;;;;;;45.40;21.60;;;;;;;;;;6266484;28;20428;-63
2022/04/02 13:43:04;;;;;;;51.70;23.33;;;;;;;;;;6266410;28;20049;-72
2022/04/02 13:46:08;;;;;;;50.03;22.65;;;;;;;;;;6264166;28;20076;-70
2022/04/02 13:49:10;;;;;;;47.83;24.35;;;;;;;;;;6267460;28;20148;-67
2022/04/02 13:52:21;;;;;;;47.55;23.33;;;;;;;;;;6267692;28;20095;-68
2022/04/02 13:55:28;;;;;;;54.85;24.88;;;;;;;;;;6264122;28;20045;-68
2022/04/02 13:58:34;;;;;;;48.95;24.10;;;;;;;;;;6265336;28;20071;-61
2022/04/02 14:01:44;;;;;;;54.72;24.60;;;;;;;;;;6265859;28;20103;-68
2022/04/02 14:04:58;;;;;;;50.78;23.30;;;;;;;;;;6266011;28;20429;-69
2022/04/02 14:08:02;;;;;;;43.47;22.67;;;;;;;;;;6250569;28;20480;-67
2022/04/02 14:11:36;;;;;;;52.97;24.13;;;;;;;;;;6265207;28;20417;-62
2022/04/02 14:14:55;;;;;;;54.13;23.85;;;;;;;;;;6248545;28;20230;-61
2022/04/02 14:18:02;;;;;;;49.47;22.52;;;;;;;;;;6266150;28;20132;-66
2022/04/02 14:21:21;;;;;;;50.45;23.50;;;;;;;;;;6266620;28;20047;-69
2022/04/02 14:24:26;;;;;;;50.47;24.95;;;;;;;;;;6265689;28;20064;-61
2022/04/02 14:27:48;;;;;;;49.03;23.42;;;;;;;;;;6264678;28;20045;-68
2022/04/02 14:31:27;;;;;;;49.40;23.38;;;;;;;;;;6265274;28;20052;-61
2022/04/02 14:34:37;;;;;;;47.97;22.95;;;;;;;;;;6264242;28;20059;-68
2022/04/02 14:38:05;;;;;;;53.85;24.70;;;;;;;;;;6262711;28;20037;-69
2022/04/02 14:41:27;;;;;;;50.30;25.30;;;;;;;;;;6262395;28;20045;-65
2022/04/02 14:44:53;;;;;;;49.72;23.23;;;;;;;;;;6269308;28;20503;-66
2022/04/02 14:48:22;;;;;;;52.60;23.20;;;;;;;;;;6259175;28;20412;-65
2022/04/02 14:51:47;;;;;;;49.03;23.45;;;;;;;;;;6270743;28;20056;-63
2022/04/02 14:55:23;;;;;;;63.25;26.10;;;;;;;;;;6269993;28;20056;-61
2022/04/02 14:58:58;;;;;;;49.13;23.17;;;;;;;;;;6258465;28;20057;-64
2022/04/02 15:02:17;;;;;;;48.83;23.42;;;;;;;;;;6261003;28;20473;-66
2022/04/02 15:05:30;;;;;;;46.38;22.65;;;;;;;;;;6269852;28;20064;-63
2022/04/02 15:09:20;;;;;;;46.90;23.17;;;;;;;;;;6269378;28;20458;-68
2022/04/02 15:12:22;;;;;;;54.22;24.35;;;;;;;;;;6265738;28;20048;-62
2022/04/02 15:15:38;;;;;;;47.30;22.58;;;;;;;;;;6269376;28;20059;-65
2022/04/02 15:18:39;;;;;;;51.00;25.23;;;;;;;;;;6267566;28;20542;-62
2022/04/02 15:21:40;;;;;;;48.72;23.48;;;;;;;;;;6267230;28;20065;-64
2022/04/02 15:24:41;;;;;;;42.58;21.85;;;;;;;;;;6269496;28;20033;-62
2022/04/02 15:27:56;;;;;;;51.65;24.25;;;;;;;;;;6270381;28;20183;-68
2022/04/02 15:30:57;;;;;;;50.92;24.45;;;;;;;;;;6266537;28;20151;-62
2022/04/02 15:33:58;;;;;;;48.38;23.85;;;;;;;;;;6264026;28;20143;-63
2022/04/02 15:37:01;;;;;;;59.20;25.85;;;;;;;;;;6268194;28;20045;-61
2022/04/02 15:40:09;;;;;;;55.25;26.95;;;;;;;;;;6267121;28;20095;-63
2022/04/02 15:43:11;;;;;;;55.33;26.95;;;;;;;;;;6266070;28;20048;-61
2022/04/02 15:46:21;;;;;;;58.17;27.42;;;;;;;;;;6266716;28;20049;-60
2022/04/02 15:49:30;;;;;;;58.63;27.95;;;;;;;;;;6265856;28;20385;-61
2022/04/02 15:52:30;;;;;;;66.88;28.60;;;;;;;;;;6267103;28;20063;-63
2022/04/02 15:55:44;;;;;;;57.45;27.55;;;;;;;;;;6265743;28;20045;-68
2022/04/02 15:59:08;;;;;;;66.72;30.38;;;;;;;;;;6267178;28;20056;-65
2022/04/02 16:02:41;;;;;;;54.17;25.05;;;;;;;;;;6266076;28;20033;-65
2022/04/02 16:05:42;;;;;;;52.03;24.98;;;;;;;;;;6266219;28;20049;-58
2022/04/02 16:08:52;;;;;;;56.90;27.73;;;;;;;;;;6265949;28;20825;-59
2022/04/02 16:11:54;;;;;;;54.47;26.75;;;;;;;;;;6266448;28;20155;-64
2022/04/02 16:15:23;;;;;;;56.20;26.23;;;;;;;;;;6267848;28;20329;-66
2022/04/02 16:18:25;;;;;;;65.47;29.00;;;;;;;;;;6264610;28;20057;-61
2022/04/02 16:21:26;;;;;;;63.05;29.35;;;;;;;;;;6265513;28;20099;-66
2022/04/02 16:24:30;;;;;;;74.38;33.85;;;;;;;;;;6265814;28;20461;-61
2022/04/02 16:27:32;;;;;;;71.35;31.92;;;;;;;;;;6268192;28;20049;-61
2022/04/02 16:30:32;;;;;;;77.27;33.80;;;;;;;;;;6264070;28;20045;-64
2022/04/02 16:33:34;;;;;;;74.72;33.55;;;;;;;;;;6266623;28;20087;-64
2022/04/02 16:36:38;;;;;;;78.13;33.55;;;;;;;;;;6267315;28;20436;-65
2022/04/02 16:39:44;;;;;;;74.95;32.13;;;;;;;;;;6261077;28;20053;-65
2022/04/02 16:42:45;;;;;;;79.82;35.58;;;;;;;;;;6266363;28;20140;-62
2022/04/02 16:46:09;;;;;;;72.65;34.00;;;;;;;;;;6265356;28;20049;-61
2022/04/02 16:49:10;;;;;;;75.97;33.92;;;;;;;;;;6265871;28;20107;-66
2022/04/02 16:52:19;;;;;;;80.63;37.70;;;;;;;;;;6264032;28;20060;-68
2022/04/02 16:55:19;;;;;;;86.47;38.78;;;;;;;;;;6261344;28;20389;-71
2022/04/02 16:58:20;;;;;;;86.18;37.55;;;;;;;;;;6268975;28;20055;-68
2022/04/02 17:01:20;;;;;;;84.00;36.53;;;;;;;;;;6261906;28;20044;-67
2022/04/02 17:04:23;;;;;;;89.28;38.85;;;;;;;;;;6265223;28;20045;-66
2022/04/02 17:07:23;;;;;;;86.93;39.13;;;;;;;;;;6267778;28;20080;-69
2022/04/02 17:10:28;;;;;;;86.85;38.28;;;;;;;;;;6268597;28;20054;-68
2022/04/02 17:13:29;;;;;;;87.53;39.38;;;;;;;;;;6265471;28;20048;-67
2022/04/02 17:16:42;;;;;;;86.20;37.97;;;;;;;;;;6266113;28;20530;-68
2022/04/02 17:19:42;;;;;;;;;;;;;;;;;;6260700;28;20094;-61
2022/04/02 17:22:48;;;;;;;89.38;37.78;;;;;;;;;;6262228;28;20352;-68
2022/04/02 17:25:50;;;;;;;87.13;38.63;;;;;;;;;;6262258;28;20111;-67
2022/04/02 17:28:52;;;;;;;87.53;39.63;;;;;;;;;;6266978;28;21619;-60
2022/04/02 17:32:14;;;;;;;93.82;40.22;;;;;;;;;;6265737;28;20045;-70
2022/04/02 17:35:19;;;;;;;98.15;43.60;;;;;;;;;;6264063;28;20571;-68
2022/04/02 17:38:22;;;;;;;91.88;39.35;;;;;;;;;;6266993;28;20053;-66
2022/04/02 17:41:22;;;;;;;;;;;;;;;;;;6268916;28;20041;-68
2022/04/02 17:44:25;;;;;;;80.18;36.85;;;;;;;;;;6266776;28;20336;-68
2022/04/02 17:47:26;;;;;;;89.03;39.22;;;;;;;;;;6264121;28;20539;-67
2022/04/02 17:50:28;;;;;;;94.40;41.47;;;;;;;;;;6264964;28;20131;-61
2022/04/02 17:53:32;;;;;;;92.65;38.95;;;;;;;;;;6265930;28;20049;-60
2022/04/02 17:56:33;;;;;;;86.85;38.50;;;;;;;;;;6264317;28;20493;-65
2022/04/02 17:59:44;;;;;;;90.60;41.33;;;;;;;;;;6264799;28;20131;-69
2022/04/02 18:02:51;;;;;;;97.32;38.55;;;;;;;;;;6265962;28;20411;-68
2022/04/02 18:05:52;;;;;;;102.95;41.78;;;;;;;;;;6255595;28;20428;-70
2022/04/02 18:08:54;;;;;;;91.95;39.55;;;;;;;;;;6264318;28;20546;-67
2022/04/02 18:11:54;;;;;;;85.85;39.13;;;;;;;;;;6266764;28;20052;-66
2022/04/02 18:14:55;;;;;;;87.18;38.35;;;;;;;;;;6263890;28;20546;-61
2022/04/02 18:17:56;;;;;;;94.50;39.72;;;;;;;;;;6234306;28;20046;-67